createdAt,value
2022-10-24T00:01:18.767Z,19.34
2022-10-24T00:03:45.754Z,19.35
2022-10-24T00:06:13.930Z,19.34
2022-10-24T00:08:42.533Z,19.33
2022-10-24T00:11:15.107Z,19.34
2022-10-24T00:13:42.167Z,19.32
2022-10-24T00:16:14.002Z,19.32
2022-10-24T00:18:41.278Z,19.32
2022-10-24T00:21:08.532Z,19.34
2022-10-24T00:23:35.929Z,19.36
2022-10-24T00:26:04.554Z,19.39
2022-10-24T00:28:33.305Z,19.40
2022-10-24T00:31:00.179Z,19.41
2022-10-24T00:33:27.316Z,19.43
2022-10-24T00:36:20.600Z,19.43
2022-10-24T00:38:47.443Z,19.44
2022-10-24T00:41:35.145Z,19.42
2022-10-24T00:44:29.587Z,19.45
2022-10-24T00:47:10.487Z,19.45
2022-10-24T00:50:00.667Z,19.45
2022-10-24T00:52:33.530Z,19.46
2022-10-24T00:55:06.004Z,19.47
2022-10-24T00:57:53.376Z,19.47
2022-10-24T01:00:26.443Z,19.48
2022-10-24T01:02:53.236Z,19.47
2022-10-24T01:05:21.603Z,19.45
2022-10-24T01:08:07.674Z,19.45
2022-10-24T01:11:07.858Z,19.44
2022-10-24T01:14:08.383Z,19.43
2022-10-24T01:16:56.601Z,19.41
2022-10-24T01:19:35.212Z,19.39
2022-10-24T01:22:13.499Z,19.38
2022-10-24T01:24:58.009Z,19.37
2022-10-24T01:27:33.500Z,19.38
2022-10-24T01:30:07.054Z,19.39
2022-10-24T01:32:52.413Z,19.41
2022-10-24T01:35:53.636Z,19.41
2022-10-24T01:38:42.427Z,19.43
2022-10-24T01:41:13.327Z,19.43
2022-10-24T01:44:18.571Z,19.41
2022-10-24T01:47:16.275Z,19.43
2022-10-24T01:49:52.534Z,19.43
2022-10-24T01:52:20.145Z,19.43
2022-10-24T01:54:48.900Z,19.43
2022-10-24T01:57:16.440Z,19.43
2022-10-24T01:59:49.194Z,19.42
2022-10-24T02:02:42.009Z,19.41
2022-10-24T02:05:17.028Z,19.41
2022-10-24T02:07:47.650Z,19.40
2022-10-24T02:10:26.062Z,19.40
2022-10-24T02:12:57.242Z,19.39
2022-10-24T02:15:31.301Z,19.39
2022-10-24T02:17:58.632Z,19.40
2022-10-24T02:20:41.577Z,19.39
2022-10-24T02:23:15.090Z,19.39
2022-10-24T02:28:22.985Z,19.39
2022-10-24T02:30:56.419Z,19.38
2022-10-24T02:33:26.763Z,19.38
2022-10-24T02:35:55.913Z,19.36
2022-10-24T02:38:28.533Z,19.36
2022-10-24T02:40:57.632Z,19.35
2022-10-24T02:43:25.823Z,19.31
2022-10-24T02:45:54.559Z,19.30
2022-10-24T02:48:26.837Z,19.30
2022-10-24T02:50:53.352Z,19.32
2022-10-24T02:53:21.833Z,19.31
2022-10-24T02:55:50.081Z,19.31
2022-10-24T02:58:16.885Z,19.32
2022-10-24T03:00:43.684Z,19.33
2022-10-24T03:03:10.206Z,19.34
2022-10-24T03:05:36.705Z,19.31
2022-10-24T03:08:03.458Z,19.31
2022-10-24T03:10:30.033Z,19.32
2022-10-24T03:12:56.517Z,19.31
2022-10-24T03:15:24.222Z,19.31
2022-10-24T03:17:50.944Z,19.31
2022-10-24T03:20:17.745Z,19.31
2022-10-24T03:22:44.189Z,19.31
2022-10-24T03:25:15.074Z,19.32
2022-10-24T03:27:41.828Z,19.32
2022-10-24T03:30:09.209Z,19.32
2022-10-24T03:32:36.253Z,19.31
2022-10-24T03:35:11.696Z,19.31
2022-10-24T03:37:40.972Z,19.33
2022-10-24T03:40:08.517Z,19.31
2022-10-24T03:42:35.053Z,19.30
2022-10-24T03:45:06.204Z,19.28
2022-10-24T03:47:32.673Z,19.27
2022-10-24T03:49:59.149Z,19.26
2022-10-24T03:52:25.892Z,19.26
2022-10-24T03:54:53.955Z,19.26
2022-10-24T03:59:48.023Z,19.24
2022-10-24T04:02:14.621Z,19.23
2022-10-24T04:04:44.944Z,19.22
2022-10-24T04:07:11.458Z,19.22
2022-10-24T04:09:38.009Z,19.23
2022-10-24T04:12:04.907Z,19.22
2022-10-24T04:14:32.903Z,19.23
2022-10-24T04:16:59.436Z,19.22
2022-10-24T04:19:26.031Z,19.24
2022-10-24T04:21:52.547Z,19.22
2022-10-24T04:24:21.915Z,19.24
2022-10-24T04:26:48.405Z,19.21
2022-10-24T04:29:15.000Z,19.21
2022-10-24T04:31:41.501Z,19.20
2022-10-24T04:34:08.925Z,19.21
2022-10-24T04:36:35.380Z,19.20
2022-10-24T04:39:02.389Z,19.21
2022-10-24T04:41:28.933Z,19.20
2022-10-24T04:43:55.534Z,19.22
2022-10-24T04:46:26.455Z,19.22
2022-10-24T04:48:53.575Z,19.24
2022-10-24T04:51:22.406Z,19.23
2022-10-24T04:53:50.264Z,19.24
2022-10-24T04:56:41.614Z,19.23
2022-10-24T04:59:08.087Z,19.25
2022-10-24T05:01:34.929Z,19.23
2022-10-24T05:04:06.213Z,19.21
2022-10-24T05:06:32.711Z,19.21
2022-10-24T05:08:59.239Z,19.22
2022-10-24T05:11:26.558Z,19.24
2022-10-24T05:13:53.127Z,19.25
2022-10-24T05:16:19.640Z,19.26
2022-10-24T05:18:46.088Z,19.27
2022-10-24T05:21:12.647Z,19.29
2022-10-24T05:23:39.156Z,19.30
2022-10-24T05:26:06.970Z,19.33
2022-10-24T05:28:33.531Z,19.35
2022-10-24T05:31:00.124Z,19.34
2022-10-24T05:33:26.802Z,19.34
2022-10-24T05:35:53.813Z,19.34
2022-10-24T05:38:20.381Z,19.35
2022-10-24T05:40:49.130Z,19.35
2022-10-24T05:43:16.404Z,19.35
2022-10-24T05:45:44.348Z,19.38
2022-10-24T05:48:10.862Z,19.40
2022-10-24T05:50:37.495Z,19.41
2022-10-24T05:53:04.416Z,19.42
2022-10-24T05:55:35.836Z,19.44
2022-10-24T05:58:03.322Z,19.46
2022-10-24T06:00:30.027Z,19.48
2022-10-24T06:02:56.502Z,19.51
2022-10-24T06:05:24.835Z,19.53
2022-10-24T06:07:51.333Z,19.54
2022-10-24T06:10:17.904Z,19.55
2022-10-24T06:12:44.678Z,19.56
2022-10-24T06:15:12.528Z,19.55
2022-10-24T06:17:38.997Z,19.55
2022-10-24T06:20:05.878Z,19.56
2022-10-24T06:22:32.450Z,19.57
2022-10-24T06:25:03.460Z,19.53
2022-10-24T06:27:30.018Z,19.54
2022-10-24T06:29:56.485Z,19.52
2022-10-24T06:32:23.127Z,19.52
2022-10-24T06:34:53.751Z,19.53
2022-10-24T06:37:20.308Z,19.53
2022-10-24T06:39:46.800Z,19.53
2022-10-24T06:42:13.491Z,19.53
2022-10-24T06:44:46.320Z,19.51
2022-10-24T06:47:14.909Z,19.50
2022-10-24T06:49:41.430Z,19.48
2022-10-24T06:52:08.848Z,19.47
2022-10-24T06:54:36.748Z,19.47
2022-10-24T06:57:10.038Z,19.47
2022-10-24T06:59:36.511Z,19.46
2022-10-24T07:02:05.843Z,19.45
2022-10-24T07:04:36.670Z,19.44
2022-10-24T07:07:03.210Z,19.44
2022-10-24T07:09:30.511Z,19.43
2022-10-24T07:11:57.126Z,19.43
2022-10-24T07:14:48.638Z,19.41
2022-10-24T07:17:16.627Z,19.42
2022-10-24T07:19:44.398Z,19.41
2022-10-24T07:22:10.896Z,19.43
2022-10-24T07:24:37.901Z,19.45
2022-10-24T07:27:04.442Z,19.45
2022-10-24T07:29:32.016Z,19.47
2022-10-24T07:31:59.496Z,19.48
2022-10-24T07:34:30.607Z,19.48
2022-10-24T07:36:57.072Z,19.52
2022-10-24T07:39:23.550Z,19.54
2022-10-24T07:41:50.332Z,19.55
2022-10-24T07:44:18.166Z,19.58
2022-10-24T07:46:44.622Z,19.61
2022-10-24T07:49:11.321Z,19.64
2022-10-24T07:51:37.785Z,19.70
2022-10-24T07:54:31.775Z,19.73
2022-10-24T07:57:01.064Z,19.79
2022-10-24T07:59:41.269Z,19.81
2022-10-24T08:02:11.578Z,19.84
2022-10-24T08:04:42.192Z,19.87
2022-10-24T08:07:13.291Z,19.90
2022-10-24T08:09:42.421Z,19.92
2022-10-24T08:12:08.939Z,19.94
2022-10-24T08:14:39.820Z,19.96
2022-10-24T08:17:06.485Z,19.97
2022-10-24T08:19:33.785Z,19.98
2022-10-24T08:22:01.221Z,20.02
2022-10-24T08:24:30.597Z,20.04
2022-10-24T08:26:57.101Z,20.06
2022-10-24T08:29:24.990Z,20.10
2022-10-24T08:31:53.551Z,20.12
2022-10-24T08:34:24.291Z,20.15
2022-10-24T08:36:51.381Z,20.17
2022-10-24T08:39:18.930Z,20.19
2022-10-24T08:41:50.957Z,20.22
2022-10-24T08:44:40.112Z,20.25
2022-10-24T08:47:09.959Z,20.29
2022-10-24T08:49:50.327Z,20.29
2022-10-24T08:52:28.564Z,20.33
2022-10-24T08:55:07.005Z,20.35
2022-10-24T08:57:34.794Z,20.37
2022-10-24T09:00:20.925Z,20.36
2022-10-24T09:02:56.822Z,20.38
2022-10-24T09:05:36.506Z,20.39
2022-10-24T09:08:20.294Z,20.41
2022-10-24T09:10:56.305Z,20.47
2022-10-24T09:13:25.757Z,20.53
2022-10-24T09:15:52.326Z,20.59
2022-10-24T09:18:27.098Z,20.72
2022-10-24T09:20:54.821Z,20.87
2022-10-24T09:23:23.902Z,21.01
2022-10-24T09:25:57.898Z,21.17
2022-10-24T09:28:24.880Z,21.33
2022-10-24T09:30:52.514Z,21.42
2022-10-24T09:33:31.770Z,21.51
2022-10-24T09:36:02.654Z,21.59
2022-10-24T09:38:35.322Z,21.66
2022-10-24T09:41:30.726Z,21.71
2022-10-24T09:44:31.307Z,21.74
2022-10-24T09:46:58.481Z,21.73
2022-10-24T09:49:33.368Z,21.69
2022-10-24T09:52:04.962Z,21.66
2022-10-24T09:54:36.806Z,21.62
2022-10-24T09:57:12.118Z,21.60
2022-10-24T09:59:46.907Z,21.59
2022-10-24T10:02:34.952Z,21.58
2022-10-24T10:05:18.118Z,21.54
2022-10-24T10:07:48.539Z,21.56
2022-10-24T10:10:17.975Z,21.63
2022-10-24T10:12:48.209Z,21.75
2022-10-24T10:15:35.910Z,21.92
2022-10-24T10:18:21.917Z,22.09
2022-10-24T10:21:07.934Z,22.25
2022-10-24T10:23:52.963Z,22.43
2022-10-24T10:26:30.793Z,22.54
2022-10-24T10:28:59.181Z,22.60
2022-10-24T10:31:40.609Z,22.65
2022-10-24T10:34:20.479Z,22.66
2022-10-24T10:37:10.026Z,22.66
2022-10-24T10:39:57.454Z,22.62
2022-10-24T10:42:47.993Z,22.56
2022-10-24T10:45:29.448Z,22.55
2022-10-24T10:48:32.903Z,22.54
2022-10-24T10:51:16.429Z,22.62
2022-10-24T10:53:55.357Z,22.70
2022-10-24T10:56:42.355Z,22.78
2022-10-24T10:59:28.632Z,22.91
2022-10-24T11:02:14.680Z,22.98
2022-10-24T11:05:11.085Z,22.99
2022-10-24T11:07:44.976Z,22.97
2022-10-24T11:10:23.354Z,22.91
2022-10-24T11:12:49.969Z,22.87
2022-10-24T11:15:34.184Z,22.79
2022-10-24T11:18:14.573Z,22.72
2022-10-24T11:20:53.258Z,22.62
2022-10-24T11:23:29.332Z,22.48
2022-10-24T11:26:18.896Z,22.28
2022-10-24T11:29:01.368Z,22.07
2022-10-24T11:31:37.605Z,21.89
2022-10-24T11:34:14.957Z,21.72
2022-10-24T11:37:04.016Z,21.60
2022-10-24T11:39:38.637Z,21.55
2022-10-24T11:42:29.461Z,21.51
2022-10-24T11:45:33.125Z,21.55
2022-10-24T11:48:25.935Z,21.67
2022-10-24T11:50:56.002Z,21.86
2022-10-24T11:53:28.594Z,22.04
2022-10-24T11:56:05.132Z,22.17
2022-10-24T11:58:33.460Z,22.29
2022-10-24T12:01:33.803Z,22.35
2022-10-24T12:04:34.025Z,22.39
2022-10-24T12:07:16.271Z,22.41
2022-10-24T12:09:48.985Z,22.50
2022-10-24T12:12:27.407Z,22.62
2022-10-24T12:15:32.220Z,22.77
2022-10-24T12:18:05.449Z,22.92
2022-10-24T12:20:33.445Z,23.03
2022-10-24T12:23:02.504Z,23.15
2022-10-24T12:25:38.173Z,23.26
2022-10-24T12:28:25.807Z,23.36
2022-10-24T12:31:12.992Z,23.46
2022-10-24T12:33:39.658Z,23.55
2022-10-24T12:36:10.880Z,23.56
2022-10-24T12:38:37.303Z,23.57
2022-10-24T12:41:27.114Z,23.55
2022-10-24T12:44:32.196Z,23.45
2022-10-24T12:46:59.398Z,23.37
2022-10-24T12:49:31.470Z,23.24
2022-10-24T12:51:59.013Z,23.14
2022-10-24T12:54:43.617Z,23.04
2022-10-24T12:57:12.968Z,23.00
2022-10-24T12:59:53.970Z,23.00
2022-10-24T13:02:20.556Z,23.06
2022-10-24T13:05:10.194Z,23.13
2022-10-24T13:08:11.772Z,23.17
2022-10-24T13:10:57.102Z,23.13
2022-10-24T13:13:55.052Z,23.04
2022-10-24T13:16:59.019Z,22.95
2022-10-24T13:19:27.197Z,22.90
2022-10-24T13:21:55.887Z,22.86
2022-10-24T13:24:33.915Z,22.88
2022-10-24T13:27:11.717Z,22.94
2022-10-24T13:29:39.375Z,22.97
2022-10-24T13:32:06.781Z,22.98
2022-10-24T13:34:42.053Z,22.97
2022-10-24T13:37:40.763Z,22.94
2022-10-24T13:40:14.085Z,22.91
2022-10-24T13:42:48.486Z,22.87
2022-10-24T13:45:33.627Z,22.85
2022-10-24T13:48:13.156Z,22.81
2022-10-24T13:50:51.860Z,22.76
2022-10-24T13:53:31.098Z,22.66
2022-10-24T13:56:10.315Z,22.56
2022-10-24T13:58:44.671Z,22.47
2022-10-24T14:01:20.273Z,22.38
2022-10-24T14:03:48.045Z,22.34
2022-10-24T14:06:15.905Z,22.35
2022-10-24T14:08:55.145Z,22.38
2022-10-24T14:11:30.987Z,22.46
2022-10-24T14:14:25.231Z,22.47
2022-10-24T14:17:28.722Z,22.49
2022-10-24T14:20:01.565Z,22.50
2022-10-24T14:22:36.145Z,22.48
2022-10-24T14:25:03.014Z,22.47
2022-10-24T14:27:30.097Z,22.47
2022-10-24T14:30:02.712Z,22.45
2022-10-24T14:32:30.885Z,22.41
2022-10-24T14:37:36.075Z,22.38
2022-10-24T14:40:04.481Z,22.38
2022-10-24T14:42:31.403Z,22.39
2022-10-24T14:44:59.939Z,22.40
2022-10-24T14:47:28.787Z,22.42
2022-10-24T14:49:59.798Z,22.41
2022-10-24T14:52:41.265Z,22.37
2022-10-24T14:55:18.237Z,22.32
2022-10-24T14:57:50.371Z,22.29
2022-10-24T15:00:25.230Z,22.24
2022-10-24T15:02:54.702Z,22.21
2022-10-24T15:05:31.441Z,22.16
2022-10-24T15:08:20.476Z,22.13
2022-10-24T15:10:44.456Z,22.09
2022-10-24T15:13:12.401Z,22.03
2022-10-24T15:15:59.898Z,21.96
2022-10-24T15:18:28.711Z,21.94
2022-10-24T15:21:14.607Z,21.86
2022-10-24T15:23:50.127Z,21.83
2022-10-24T15:26:39.219Z,21.81
2022-10-24T15:29:05.616Z,21.80
2022-10-24T15:31:34.204Z,21.75
2022-10-24T15:34:02.723Z,21.72
2022-10-24T15:36:31.961Z,21.65
2022-10-24T15:39:27.617Z,21.62
2022-10-24T15:41:54.247Z,21.60
2022-10-24T15:44:26.747Z,21.54
2022-10-24T15:46:53.849Z,21.47
2022-10-24T15:49:20.599Z,21.41
2022-10-24T15:51:50.506Z,21.36
2022-10-24T15:54:22.519Z,21.32
2022-10-24T15:56:49.237Z,21.27
2022-10-24T15:59:15.875Z,21.21
2022-10-24T16:01:50.916Z,21.19
2022-10-24T16:04:18.263Z,21.14
2022-10-24T16:06:44.871Z,21.10
2022-10-24T16:09:17.928Z,21.04
2022-10-24T16:11:45.379Z,21.00
2022-10-24T16:14:21.472Z,20.97
2022-10-24T16:16:48.047Z,20.93
2022-10-24T16:19:14.718Z,20.92
2022-10-24T16:21:41.967Z,20.89
2022-10-24T16:24:13.478Z,20.86
2022-10-24T16:26:40.661Z,20.82
2022-10-24T16:29:07.441Z,20.80
2022-10-24T16:31:34.027Z,20.78
2022-10-24T16:34:09.656Z,20.76
2022-10-24T16:36:36.177Z,20.76
2022-10-24T16:39:03.825Z,20.74
2022-10-24T16:41:30.330Z,20.72
2022-10-24T16:44:04.557Z,20.67
2022-10-24T16:46:31.037Z,20.64
2022-10-24T16:48:57.790Z,20.61
2022-10-24T16:51:31.997Z,20.61
2022-10-24T16:54:04.084Z,20.62
2022-10-24T16:56:30.997Z,20.62
2022-10-24T16:58:57.786Z,20.62
2022-10-24T17:01:27.128Z,20.60
2022-10-24T17:03:53.929Z,20.57
2022-10-24T17:06:20.463Z,20.56
2022-10-24T17:08:46.993Z,20.53
2022-10-24T17:11:39.448Z,20.44
2022-10-24T17:14:03.877Z,20.39
2022-10-24T17:16:30.398Z,20.35
2022-10-24T17:19:12.402Z,20.30
2022-10-24T17:21:42.518Z,20.26
2022-10-24T17:24:13.493Z,20.17
2022-10-24T17:26:41.226Z,20.12
2022-10-24T17:29:08.525Z,20.07
2022-10-24T17:31:35.609Z,20.04
2022-10-24T17:34:03.878Z,20.01
2022-10-24T17:36:36.629Z,19.95
2022-10-24T17:39:17.642Z,19.91
2022-10-24T17:41:44.520Z,19.86
2022-10-24T17:44:16.474Z,19.82
2022-10-24T17:46:44.502Z,19.81
2022-10-24T17:49:15.478Z,19.79
2022-10-24T17:51:47.227Z,19.74
2022-10-24T17:54:18.672Z,19.72
2022-10-24T17:56:45.308Z,19.71
2022-10-24T17:59:11.862Z,19.68
2022-10-24T18:01:38.652Z,19.64
2022-10-24T18:04:09.355Z,19.60
2022-10-24T18:06:39.406Z,19.54
2022-10-24T18:09:09.882Z,19.50
2022-10-24T18:11:36.366Z,19.48
2022-10-24T18:14:04.461Z,19.46
2022-10-24T18:16:31.250Z,19.44
2022-10-24T18:18:57.732Z,19.43
2022-10-24T18:21:25.390Z,19.42
2022-10-24T18:23:52.853Z,19.39
2022-10-24T18:26:22.497Z,19.40
2022-10-24T18:28:51.347Z,19.38
2022-10-24T18:31:22.295Z,19.36
2022-10-24T18:33:49.540Z,19.33
2022-10-24T18:36:20.939Z,19.29
2022-10-24T18:38:47.689Z,19.26
2022-10-24T18:41:38.614Z,19.23
2022-10-24T18:44:22.330Z,19.21
2022-10-24T18:46:50.074Z,19.20
2022-10-24T18:49:16.813Z,19.21
2022-10-24T18:52:03.692Z,19.20
2022-10-24T18:54:45.037Z,19.21
2022-10-24T18:57:22.094Z,19.24
2022-10-24T18:59:48.675Z,19.22
2022-10-24T19:02:24.945Z,19.21
2022-10-24T19:05:05.244Z,19.22
2022-10-24T19:07:31.881Z,19.19
2022-10-24T19:09:58.466Z,19.16
2022-10-24T19:12:26.243Z,19.14
2022-10-24T19:14:56.910Z,19.14
2022-10-24T19:17:24.231Z,19.10
2022-10-24T19:19:51.418Z,19.09
2022-10-24T19:22:17.852Z,19.07
2022-10-24T19:24:48.254Z,19.03
2022-10-24T19:27:14.810Z,18.97
2022-10-24T19:29:41.258Z,18.96
2022-10-24T19:32:07.809Z,18.94
2022-10-24T19:34:38.425Z,18.97
2022-10-24T19:37:04.943Z,18.99
2022-10-24T19:39:33.892Z,18.97
2022-10-24T19:42:00.688Z,18.96
2022-10-24T19:44:30.075Z,18.91
2022-10-24T19:46:56.609Z,18.89
2022-10-24T19:49:23.070Z,18.88
2022-10-24T19:51:51.350Z,18.86
2022-10-24T19:54:18.237Z,18.81
2022-10-24T19:56:44.762Z,18.78
2022-10-24T19:59:12.281Z,18.75
2022-10-24T20:01:38.969Z,18.72
2022-10-24T20:04:09.237Z,18.71
2022-10-24T20:06:35.682Z,18.67
2022-10-24T20:09:02.526Z,18.66
2022-10-24T20:11:29.110Z,18.64
2022-10-24T20:13:55.701Z,18.63
2022-10-24T20:16:22.672Z,18.62
2022-10-24T20:18:49.250Z,18.60
2022-10-24T20:21:17.822Z,18.57
2022-10-24T20:23:46.594Z,18.51
2022-10-24T20:26:16.431Z,18.47
2022-10-24T20:28:46.313Z,18.43
2022-10-24T20:31:26.446Z,18.43
2022-10-24T20:33:53.156Z,18.41
2022-10-24T20:36:23.545Z,18.39
2022-10-24T20:38:50.087Z,18.37
2022-10-24T20:41:16.615Z,18.32
2022-10-24T20:43:43.233Z,18.30
2022-10-24T20:46:14.215Z,18.25
2022-10-24T20:48:40.725Z,18.21
2022-10-24T20:51:10.142Z,18.18
2022-10-24T20:53:37.338Z,18.16
2022-10-24T20:56:10.508Z,18.15
2022-10-24T20:58:39.169Z,18.13
2022-10-24T21:01:26.884Z,18.09
2022-10-24T21:03:55.027Z,18.10
2022-10-24T21:06:33.685Z,18.09
2022-10-24T21:11:35.411Z,18.11
2022-10-24T21:14:12.535Z,18.09
2022-10-24T21:16:39.202Z,18.09
2022-10-24T21:19:05.660Z,18.08
2022-10-24T21:21:32.458Z,18.08
2022-10-24T21:24:06.896Z,18.10
2022-10-24T21:26:39.384Z,18.12
2022-10-24T21:29:31.620Z,18.13
2022-10-24T21:31:53.401Z,18.09
2022-10-24T21:34:25.918Z,18.08
2022-10-24T21:36:54.530Z,18.05
2022-10-24T21:39:21.036Z,18.04
2022-10-24T21:41:47.519Z,18.04
2022-10-24T21:44:18.059Z,18.03
2022-10-24T21:46:44.543Z,18.04
2022-10-24T21:49:11.049Z,18.02
2022-10-24T21:51:39.174Z,18.00
2022-10-24T21:54:25.393Z,17.96
2022-10-24T21:56:51.954Z,17.96
2022-10-24T21:59:20.780Z,17.96
2022-10-24T22:01:48.821Z,17.94
2022-10-24T22:04:20.120Z,17.90
2022-10-24T22:06:47.159Z,17.84
2022-10-24T22:09:18.485Z,17.80
2022-10-24T22:11:45.441Z,17.81
2022-10-24T22:14:14.624Z,17.78
2022-10-24T22:16:41.914Z,17.78
2022-10-24T22:19:10.290Z,17.76
2022-10-24T22:21:42.559Z,17.77
2022-10-24T22:24:19.421Z,17.76
2022-10-24T22:26:46.595Z,17.75
2022-10-24T22:29:16.180Z,17.71
2022-10-24T22:31:43.344Z,17.68
2022-10-24T22:34:19.979Z,17.69
2022-10-24T22:37:05.453Z,17.70
2022-10-24T22:39:32.854Z,17.70
2022-10-24T22:41:59.834Z,17.69
2022-10-24T22:44:28.114Z,17.66
2022-10-24T22:47:15.995Z,17.66
2022-10-24T22:50:07.430Z,17.64
2022-10-24T22:52:34.346Z,17.64
2022-10-24T22:55:03.908Z,17.65
2022-10-24T22:57:31.176Z,17.64
2022-10-24T22:59:57.767Z,17.63
2022-10-24T23:02:36.382Z,17.61
2022-10-24T23:05:13.789Z,17.60
2022-10-24T23:07:51.775Z,17.61
2022-10-24T23:10:22.896Z,17.61
2022-10-24T23:12:50.327Z,17.62
2022-10-24T23:15:22.715Z,17.60
2022-10-24T23:17:50.238Z,17.57
2022-10-24T23:20:22.994Z,17.56
2022-10-24T23:22:58.192Z,17.59
2022-10-24T23:25:37.279Z,17.57
2022-10-24T23:28:33.636Z,17.55
2022-10-24T23:31:00.292Z,17.55
2022-10-24T23:33:29.210Z,17.58
2022-10-24T23:36:00.412Z,17.57
2022-10-24T23:38:27.554Z,17.55
2022-10-24T23:40:54.861Z,17.56
2022-10-24T23:43:23.074Z,17.58
2022-10-24T23:46:06.914Z,17.59
2022-10-24T23:48:51.494Z,17.62
2022-10-24T23:51:24.618Z,17.62
2022-10-24T23:53:55.932Z,17.64
2022-10-24T23:56:25.108Z,17.64
2022-10-24T23:58:52.309Z,17.67
